Taipei Songshan Airport
RCSS : now visible

Airfield :











YOU CAN JOIN US ON...

 
LOGIN :

Register | Disclaimer

   EN    FR    IT 

 









Legend :    VFR   Marginal VFR   IFR   Intensive IFR   Very Intensive IFR
Visi :
Ceiling :
>= 8 km
>= 3000ft
5 to 8 km
1000 to 3000 ft
1500m to 5 km
500 to 1000 ft
800 to 1500m
200 to 500 ft
< 800m
< 200 ft
Symbols :   Thunderstorms  Fog  Heavy snow  Heavy precipitations  Wind > 20 kt






- Airport Elevation : 18 ft
- IATA code : TSA


RCSS - Taipei Songshan

CURRENT METAR :
  • 240900Z 08012KT 8000 -DZ FEW008 BKN018 BKN040 20/17 Q1011 NOSIG RMK A2987

EXPIRED METARs :
  • 240830Z 08013KT 8000 -RA FEW006 BKN018 BKN040 20/17 Q1011 NOSIG RMK A2986
  • 240824Z 08013KT 8000 -RA FEW006 BKN018 BKN040 20/17 Q1011 NOSIG RMK A2986
  • 240800Z 08013KT 9999 FEW012 BKN018 BKN050 20/17 Q1010 NOSIG RMK A2985
  • 240730Z 08013KT 9999 FEW010 BKN018 BKN050 20/17 Q1011 NOSIG RMK A2986
  • 240700Z 09014KT 9999 FEW010 BKN020 BKN050 20/17 Q1011 NOSIG RMK A2987
  • 240630Z 08014KT 9999 FEW010 BKN020 BKN050 20/18 Q1011 NOSIG RMK A2988
  • 240600Z 09015KT 9999 FEW010 BKN020 BKN060 21/18 Q1012 NOSIG RMK A2989
  • 240530Z 08017KT 9999 -RA FEW010 BKN018 BKN060 20/18 Q1012 NOSIG RMK A2989
  • 240500Z 08014KT 9999 -RA FEW006 SCT020 BKN050 21/18 Q1012 NOSIG RMK A2990
  • 240430Z 09014KT 9999 -RA SCT006 SCT020 BKN040 20/19 Q1012 NOSIG RMK A2990

TAF TAF RCSS
Valid from the 24 at 06:00 until the 25 at 06:00 UTC


240500Z 2406/2506 09005KT 8000 FEW015 BKN032
TEMPO 2406/2412 10010KT 4000 SHRA FEW010 BKN017
TEMPO 2412/2416 6000 -RA FEW010 BKN020 BKN040
RCAA FIR / Asia



MET'MAP, your aeronautical weather chart ! - Copyright ORBIFLY December 2007 - Disclaimer

ORBIFLY MET'MAP TEAM :

Programming & Development : Alexandra Zaïnal
Original concept : Baudouin d'Aumeries
Technical & hardware support : Manuel Goepfert
Assistance : Marc-Olivier Méhu




SOURCES & CREDITS :

   NOAA       Earth
Advisory